createdAt,value
2022-09-05T00:02:18.407Z,2.10
2022-09-05T00:04:50.667Z,1.98
2022-09-05T00:07:37.407Z,1.92
2022-09-05T00:10:12.986Z,1.90
2022-09-05T00:12:43.740Z,2.20
2022-09-05T00:15:19.288Z,2.30
2022-09-05T00:21:33.552Z,2.33
2022-09-05T00:24:31.032Z,2.22
2022-09-05T00:24:37.272Z,2.10
2022-09-05T00:26:43.877Z,2.05
2022-09-05T00:29:37.704Z,2.28
2022-09-05T00:32:15.453Z,2.00
2022-09-05T00:34:56.796Z,2.00
2022-09-05T00:37:28.912Z,2.20
2022-09-05T00:40:11.326Z,2.65
2022-09-05T00:42:48.533Z,2.50
2022-09-05T00:45:19.720Z,2.40
2022-09-05T00:47:51.099Z,2.25
2022-09-05T00:50:22.584Z,2.70
2022-09-05T00:53:06.640Z,2.22
2022-09-05T00:55:40.237Z,2.30
2022-09-05T00:58:12.136Z,2.25
2022-09-05T01:00:47.101Z,2.65
2022-09-05T01:03:31.185Z,2.30
2022-09-05T01:06:16.684Z,2.30
2022-09-05T01:09:08.522Z,2.50
2022-09-05T01:11:53.396Z,2.20
2022-09-05T01:14:26.907Z,2.30
2022-09-05T01:17:04.355Z,2.42
2022-09-05T01:19:39.172Z,2.30
2022-09-05T01:22:18.867Z,2.28
2022-09-05T01:24:55.141Z,2.50
2022-09-05T01:28:08.383Z,2.13
2022-09-05T01:30:32.179Z,2.50
2022-09-05T01:33:05.908Z,2.70
2022-09-05T01:35:59.228Z,2.30
2022-09-05T01:38:35.170Z,2.88
2022-09-05T01:41:18.383Z,2.38
2022-09-05T01:44:04.081Z,2.70
2022-09-05T01:46:37.905Z,2.50
2022-09-05T01:49:11.188Z,2.78
2022-09-05T01:51:46.467Z,2.00
2022-09-05T01:54:21.504Z,2.22
2022-09-05T01:57:01.293Z,2.47
2022-09-05T01:59:34.635Z,2.60
2022-09-05T02:02:14.185Z,2.70
2022-09-05T02:05:03.847Z,2.38
2022-09-05T02:07:36.503Z,2.67
2022-09-05T02:10:26.783Z,2.42
2022-09-05T02:13:02.929Z,2.55
2022-09-05T02:15:39.433Z,2.65
2022-09-05T02:18:12.012Z,2.40
2022-09-05T02:20:46.045Z,2.72
2022-09-05T02:23:31.053Z,2.50
2022-09-05T02:26:06.456Z,2.80
2022-09-05T02:28:38.297Z,2.70
2022-09-05T02:31:20.530Z,2.67
2022-09-05T02:33:53.699Z,2.65
2022-09-05T02:36:33.305Z,2.80
2022-09-05T02:45:00.261Z,2.50
2022-09-05T02:45:10.845Z,2.90
2022-09-05T02:45:17.416Z,2.75
2022-09-05T02:47:33.091Z,2.85
2022-09-05T02:53:30.116Z,3.00
2022-09-05T02:57:36.375Z,2.63
2022-09-05T02:57:41.149Z,2.88
2022-09-05T02:59:08.732Z,3.10
2022-09-05T03:01:41.864Z,2.95
2022-09-05T03:04:15.946Z,3.00
2022-09-05T03:06:53.360Z,2.90
2022-09-05T03:09:25.644Z,2.80
2022-09-05T03:12:29.149Z,3.13
2022-09-05T03:15:22.442Z,3.10
2022-09-05T03:18:20.379Z,3.33
2022-09-05T03:20:54.052Z,3.22
2022-09-05T03:23:33.197Z,3.47
2022-09-05T03:26:22.141Z,3.17
2022-09-05T03:29:07.406Z,3.40
2022-09-05T03:31:42.894Z,2.92
2022-09-05T03:34:31.152Z,3.58
2022-09-05T03:37:17.560Z,3.33
2022-09-05T03:40:16.238Z,3.15
2022-09-05T03:42:53.539Z,3.10
2022-09-05T03:45:43.403Z,3.20
2022-09-05T03:48:28.369Z,3.40
2022-09-05T03:57:04.352Z,3.40
2022-09-05T03:57:18.608Z,3.33
2022-09-05T03:57:24.924Z,3.38
2022-09-05T04:00:05.197Z,3.70
2022-09-05T04:08:08.765Z,3.75
2022-09-05T04:08:18.854Z,3.47
2022-09-05T04:08:34.201Z,3.47
2022-09-05T04:11:05.359Z,3.83
2022-09-05T04:13:36.739Z,3.70
2022-09-05T04:16:08.618Z,3.70
2022-09-05T04:18:38.596Z,3.63
2022-09-05T04:21:09.498Z,3.90
2022-09-05T04:23:42.926Z,3.53
2022-09-05T04:26:17.739Z,3.80
2022-09-05T04:28:53.560Z,4.75
2022-09-05T04:31:29.714Z,3.83
2022-09-05T04:34:03.672Z,4.05
2022-09-05T04:36:33.812Z,4.38
2022-09-05T04:39:09.190Z,4.55
2022-09-05T04:41:40.559Z,4.73
2022-09-05T04:44:11.035Z,4.18
2022-09-05T04:46:48.894Z,3.60
2022-09-05T04:49:18.030Z,4.00
2022-09-05T04:52:03.761Z,3.53
2022-09-05T04:54:36.352Z,3.72
2022-09-05T04:57:14.067Z,4.03
2022-09-05T05:05:23.661Z,4.40
2022-09-05T05:06:08.357Z,3.75
2022-09-05T05:06:11.399Z,3.80
2022-09-05T05:08:36.443Z,4.35
2022-09-05T05:14:53.804Z,4.00
2022-09-05T05:18:11.318Z,4.00
2022-09-05T05:18:14.227Z,3.97
2022-09-05T05:19:47.315Z,4.22
2022-09-05T05:22:27.062Z,4.05
2022-09-05T05:24:56.534Z,4.20
2022-09-05T05:27:26.241Z,4.32
2022-09-05T05:29:56.422Z,3.97
2022-09-05T05:32:43.602Z,4.40
2022-09-05T05:35:15.273Z,4.13
2022-09-05T05:37:46.064Z,4.10
2022-09-05T05:40:19.720Z,4.18
2022-09-05T05:42:47.676Z,4.10
2022-09-05T05:45:17.888Z,4.20
2022-09-05T05:47:46.548Z,3.97
2022-09-05T05:50:23.787Z,3.83
2022-09-05T05:53:00.080Z,3.70
2022-09-05T05:55:51.848Z,4.03
2022-09-05T05:58:36.097Z,3.90
2022-09-05T06:01:37.654Z,3.97
2022-09-05T06:04:20.260Z,3.70
2022-09-05T06:06:57.978Z,3.70
2022-09-05T06:14:51.206Z,3.70
2022-09-05T06:15:03.766Z,3.75
2022-09-05T06:16:23.409Z,4.10
2022-09-05T06:19:10.655Z,3.65
2022-09-05T06:22:06.424Z,3.42
2022-09-05T06:25:16.376Z,3.83
2022-09-05T06:28:17.456Z,3.97
2022-09-05T06:30:42.329Z,4.15
2022-09-05T06:33:16.588Z,3.85
2022-09-05T06:36:01.239Z,3.75
2022-09-05T06:38:43.698Z,4.03
2022-09-05T06:41:20.675Z,4.13
2022-09-05T06:44:05.583Z,3.83
2022-09-05T06:46:54.332Z,3.55
2022-09-05T06:49:32.392Z,3.83
2022-09-05T06:52:29.635Z,3.80
2022-09-05T06:55:31.367Z,3.92
2022-09-05T06:58:15.728Z,3.60
2022-09-05T07:00:47.383Z,3.97
2022-09-05T07:03:22.983Z,3.88
2022-09-05T07:05:55.932Z,3.47
2022-09-05T07:08:35.421Z,3.58
2022-09-05T07:11:15.631Z,3.55
2022-09-05T07:13:48.507Z,3.45
2022-09-05T07:16:28.524Z,3.70
2022-09-05T07:19:14.185Z,3.70
2022-09-05T07:21:45.500Z,3.80
2022-09-05T07:24:45.589Z,3.78
2022-09-05T07:27:06.685Z,3.28
2022-09-05T07:29:38.424Z,3.33
2022-09-05T07:32:09.617Z,3.75
2022-09-05T07:34:38.679Z,3.92
2022-09-05T07:37:15.195Z,3.60
2022-09-05T07:39:46.395Z,4.13
2022-09-05T07:42:16.749Z,4.10
2022-09-05T07:44:48.852Z,4.05
2022-09-05T07:47:21.483Z,3.75
2022-09-05T07:50:07.785Z,3.75
2022-09-05T07:56:50.340Z,3.38
2022-09-05T07:56:55.052Z,3.75
2022-09-05T07:58:19.686Z,3.55
2022-09-05T08:00:51.861Z,3.67
2022-09-05T08:03:25.560Z,3.40
2022-09-05T08:05:53.960Z,3.50
2022-09-05T08:08:23.154Z,3.70
2022-09-05T08:11:22.752Z,3.72
2022-09-05T08:14:02.360Z,3.60
2022-09-05T08:16:43.111Z,3.63
2022-09-05T08:19:27.828Z,3.40
2022-09-05T08:21:56.763Z,3.70
2022-09-05T08:24:26.954Z,3.75
2022-09-05T08:27:00.392Z,3.60
2022-09-05T08:29:31.991Z,3.22
2022-09-05T08:32:03.875Z,3.65
2022-09-05T08:34:44.186Z,3.60
2022-09-05T08:37:21.205Z,3.75
2022-09-05T08:40:10.233Z,3.22
2022-09-05T08:42:43.988Z,3.30
2022-09-05T08:46:46.333Z,3.50
2022-09-05T08:48:32.180Z,3.40
2022-09-05T08:51:18.494Z,3.47
2022-09-05T08:53:53.307Z,3.50
2022-09-05T08:56:23.202Z,3.78
2022-09-05T08:59:27.976Z,3.53
2022-09-05T09:02:45.502Z,3.58
2022-09-05T09:05:02.088Z,3.33
2022-09-05T09:07:51.663Z,3.40
2022-09-05T09:10:32.487Z,3.70
2022-09-05T09:13:06.951Z,3.40
2022-09-05T09:15:37.190Z,3.30
2022-09-05T09:18:10.814Z,3.50
2022-09-05T09:20:45.509Z,3.10
2022-09-05T09:23:32.041Z,3.80
2022-09-05T09:26:06.207Z,3.33
2022-09-05T09:28:50.590Z,4.32
2022-09-05T09:31:24.003Z,3.58
2022-09-05T09:33:57.398Z,3.35
2022-09-05T09:36:44.375Z,3.60
2022-09-05T09:39:38.633Z,3.45
2022-09-05T09:42:33.610Z,3.20
2022-09-05T09:45:22.723Z,3.22
2022-09-05T09:48:14.240Z,3.53
2022-09-05T09:51:00.515Z,3.58
2022-09-05T09:53:40.328Z,3.97
2022-09-05T09:56:27.975Z,3.33
2022-09-05T09:59:20.854Z,3.80
2022-09-05T10:01:54.410Z,3.60
2022-09-05T10:10:35.975Z,3.65
2022-09-05T10:10:44.577Z,3.28
2022-09-05T10:11:21.582Z,3.70
2022-09-05T10:13:47.364Z,3.80
2022-09-05T10:16:29.714Z,3.72
2022-09-05T10:19:03.897Z,3.63
2022-09-05T10:21:46.512Z,3.75
2022-09-05T10:24:27.727Z,3.13
2022-09-05T10:27:14.685Z,3.83
2022-09-05T10:29:46.584Z,3.53
2022-09-05T10:35:02.780Z,3.70
2022-09-05T10:35:21.103Z,3.83
2022-09-05T10:37:52.869Z,3.63
2022-09-05T10:40:22.844Z,3.40
2022-09-05T10:43:00.233Z,3.72
2022-09-05T10:45:38.068Z,3.60
2022-09-05T10:48:13.733Z,3.67
2022-09-05T10:50:43.569Z,4.10
2022-09-05T10:53:20.715Z,3.60
2022-09-05T10:55:56.199Z,3.88
2022-09-05T11:02:19.453Z,3.55
2022-09-05T11:02:29.475Z,3.58
2022-09-05T11:04:21.854Z,3.42
2022-09-05T11:06:54.288Z,3.63
2022-09-05T11:09:29.888Z,3.28
2022-09-05T11:12:04.308Z,3.40
2022-09-05T11:14:36.528Z,4.00
2022-09-05T11:17:11.175Z,3.30
2022-09-05T11:19:41.748Z,3.47
2022-09-05T11:22:22.143Z,3.20
2022-09-05T11:24:53.127Z,3.53
2022-09-05T11:27:26.140Z,3.40
2022-09-05T11:29:55.207Z,3.53
2022-09-05T11:38:42.241Z,3.80
2022-09-05T11:39:55.071Z,3.40
2022-09-05T11:39:57.875Z,3.00
2022-09-05T11:41:30.985Z,3.25
2022-09-05T11:44:25.815Z,3.30
2022-09-05T11:47:28.189Z,3.30
2022-09-05T11:50:14.049Z,3.50
2022-09-05T11:53:08.669Z,3.50
2022-09-05T11:58:50.222Z,3.40
2022-09-05T12:01:41.567Z,3.55
2022-09-05T12:04:38.555Z,3.58
2022-09-05T12:07:27.115Z,3.35
2022-09-05T12:10:47.225Z,3.35
2022-09-05T12:13:14.062Z,4.07
2022-09-05T12:15:53.428Z,3.20
2022-09-05T12:18:38.996Z,3.33
2022-09-05T12:21:19.721Z,4.03
2022-09-05T12:24:24.779Z,2.88
2022-09-05T12:27:36.225Z,3.47
2022-09-05T12:29:38.794Z,3.45
2022-09-05T12:36:11.793Z,3.15
2022-09-05T12:40:53.695Z,3.40
2022-09-05T12:41:42.042Z,3.58
2022-09-05T12:41:44.464Z,3.47
2022-09-05T12:44:38.704Z,3.40
2022-09-05T12:46:34.014Z,3.50
2022-09-05T12:49:06.860Z,3.83
2022-09-05T12:51:46.353Z,3.88
2022-09-05T12:54:27.906Z,3.50
2022-09-05T13:01:46.238Z,3.20
2022-09-05T13:03:03.545Z,3.58
2022-09-05T13:03:09.658Z,3.85
2022-09-05T13:05:34.521Z,3.38
2022-09-05T13:08:04.483Z,3.58
2022-09-05T13:14:53.534Z,3.28
2022-09-05T13:15:02.696Z,3.50
2022-09-05T13:16:13.495Z,3.42
2022-09-05T13:18:52.096Z,3.53
2022-09-05T13:21:23.276Z,3.10
2022-09-05T13:24:01.293Z,3.10
2022-09-05T13:26:33.891Z,3.50
2022-09-05T13:29:10.749Z,3.10
2022-09-05T13:37:58.667Z,3.22
2022-09-05T13:38:07.593Z,3.80
2022-09-05T13:38:08.370Z,3.30
2022-09-05T13:40:28.057Z,3.58
2022-09-05T13:42:58.971Z,3.85
2022-09-05T13:45:27.159Z,3.08
2022-09-05T13:48:02.085Z,3.95
2022-09-05T13:50:31.617Z,3.00
2022-09-05T13:53:04.817Z,3.47
2022-09-05T13:55:41.831Z,3.42
2022-09-05T13:58:12.375Z,3.22
2022-09-05T14:01:01.041Z,3.20
2022-09-05T14:03:50.394Z,3.42
2022-09-05T14:06:46.280Z,3.25
2022-09-05T14:09:39.705Z,3.40
2022-09-05T14:12:12.682Z,3.72
2022-09-05T14:17:51.460Z,3.60
2022-09-05T14:20:37.622Z,3.38
2022-09-05T14:23:13.394Z,3.20
2022-09-05T14:25:43.038Z,3.03
2022-09-05T14:28:13.957Z,3.47
2022-09-05T14:34:01.173Z,3.30
2022-09-05T14:37:44.260Z,3.58
2022-09-05T14:38:00.798Z,3.40
2022-09-05T14:39:34.518Z,3.53
2022-09-05T14:42:23.959Z,3.75
2022-09-05T14:45:06.520Z,3.58
2022-09-05T14:47:51.830Z,3.30
2022-09-05T14:50:27.476Z,3.25
2022-09-05T14:56:13.725Z,3.50
2022-09-05T15:02:50.647Z,3.65
2022-09-05T15:02:54.991Z,3.30
2022-09-05T15:04:36.248Z,3.40
2022-09-05T15:07:09.166Z,3.58
2022-09-05T15:12:14.287Z,3.35
2022-09-05T15:12:39.725Z,3.38
2022-09-05T15:15:15.468Z,3.50
2022-09-05T15:17:46.381Z,3.20
2022-09-05T15:20:27.075Z,3.20
2022-09-05T15:22:57.454Z,3.20
2022-09-05T15:25:25.869Z,3.35
2022-09-05T15:27:54.408Z,3.28
2022-09-05T15:30:25.661Z,3.33
2022-09-05T15:33:25.571Z,3.50
2022-09-05T15:35:55.564Z,3.13
2022-09-05T15:38:24.643Z,3.40
2022-09-05T15:41:07.811Z,3.28
2022-09-05T15:43:35.840Z,3.13
2022-09-05T15:46:04.458Z,3.25
2022-09-05T15:48:34.741Z,3.40
2022-09-05T15:51:08.838Z,2.88
2022-09-05T15:53:37.982Z,3.20
2022-09-05T15:56:18.151Z,3.50
2022-09-05T15:58:53.805Z,3.40
2022-09-05T16:01:35.917Z,3.20
2022-09-05T16:07:42.966Z,3.30
2022-09-05T16:10:37.156Z,3.03
2022-09-05T16:10:49.375Z,3.53
2022-09-05T16:12:46.937Z,3.47
2022-09-05T16:16:32.283Z,3.40
2022-09-05T16:23:14.430Z,3.33
2022-09-05T16:23:31.433Z,3.05
2022-09-05T16:23:46.285Z,2.90
2022-09-05T16:26:24.813Z,3.10
2022-09-05T16:28:56.570Z,3.10
2022-09-05T16:31:27.888Z,2.85
2022-09-05T16:33:55.977Z,2.90
2022-09-05T16:36:27.095Z,2.97
2022-09-05T16:38:59.289Z,2.92
2022-09-05T16:41:30.679Z,3.38
2022-09-05T16:44:00.155Z,3.50
2022-09-05T16:46:30.865Z,3.72
2022-09-05T16:49:01.509Z,4.03
2022-09-05T16:51:36.373Z,3.65
2022-09-05T16:54:11.021Z,3.75
2022-09-05T16:56:41.146Z,4.03
2022-09-05T16:59:10.644Z,4.10
2022-09-05T17:02:06.566Z,4.22
2022-09-05T17:05:04.859Z,4.70
2022-09-05T17:07:37.666Z,4.53
2022-09-05T17:10:12.236Z,4.78
2022-09-05T17:12:41.060Z,4.97
2022-09-05T17:15:11.044Z,3.92
2022-09-05T17:18:21.493Z,4.57
2022-09-05T17:20:42.002Z,3.80
2022-09-05T17:24:49.368Z,3.92
2022-09-05T17:29:26.824Z,3.55
2022-09-05T17:29:29.821Z,3.70
2022-09-05T17:32:01.811Z,4.20
2022-09-05T17:34:43.336Z,3.40
2022-09-05T17:37:22.556Z,3.20
2022-09-05T17:39:55.450Z,3.05
2022-09-05T17:42:32.692Z,2.88
2022-09-05T17:45:07.699Z,3.10
2022-09-05T17:47:44.470Z,2.80
2022-09-05T17:50:14.455Z,2.72
2022-09-05T17:53:26.648Z,3.00
2022-09-05T17:56:22.135Z,3.30
2022-09-05T17:59:05.071Z,2.78
2022-09-05T18:01:34.740Z,3.10
2022-09-05T18:04:15.974Z,3.00
2022-09-05T18:06:52.815Z,2.90
2022-09-05T18:10:14.908Z,2.92
2022-09-05T18:13:13.121Z,3.10
2022-09-05T18:15:53.505Z,3.22
2022-09-05T18:19:28.842Z,3.45
2022-09-05T18:21:24.668Z,3.38
2022-09-05T18:23:59.860Z,2.97
2022-09-05T18:26:28.735Z,2.90
2022-09-05T18:28:59.609Z,3.05
2022-09-05T18:31:51.956Z,2.97
2022-09-05T18:34:38.704Z,2.80
2022-09-05T18:37:23.057Z,3.13
2022-09-05T18:40:05.983Z,2.95
2022-09-05T18:42:38.336Z,2.80
2022-09-05T18:45:15.345Z,3.17
2022-09-05T18:47:51.176Z,3.13
2022-09-05T18:50:28.199Z,3.80
2022-09-05T18:53:05.689Z,7.63
2022-09-05T18:56:11.461Z,4.95
2022-09-05T18:58:34.463Z,5.15
2022-09-05T19:01:17.003Z,3.15
2022-09-05T19:03:45.611Z,3.13
2022-09-05T19:06:36.582Z,3.00
2022-09-05T19:09:07.813Z,2.90
2022-09-05T19:11:53.187Z,3.13
2022-09-05T19:14:30.092Z,2.92
2022-09-05T19:17:01.204Z,3.50
2022-09-05T19:19:31.330Z,3.10
2022-09-05T19:22:39.564Z,3.42
2022-09-05T19:24:48.257Z,3.55
2022-09-05T19:32:10.711Z,3.42
2022-09-05T19:37:02.637Z,3.30
2022-09-05T19:37:06.358Z,3.28
2022-09-05T19:37:12.156Z,3.25
2022-09-05T19:38:38.357Z,2.92
2022-09-05T19:47:31.210Z,3.22
2022-09-05T19:47:37.379Z,3.05
2022-09-05T19:47:46.498Z,3.33
2022-09-05T19:50:05.733Z,2.90
2022-09-05T19:52:33.636Z,2.97
2022-09-05T19:55:18.216Z,3.30
2022-09-05T19:57:49.617Z,3.10
2022-09-05T20:00:34.405Z,3.22
2022-09-05T20:03:02.557Z,3.40
2022-09-05T20:05:30.756Z,3.40
2022-09-05T20:07:59.710Z,3.28
2022-09-05T20:10:28.580Z,3.28
2022-09-05T20:12:56.733Z,3.22
2022-09-05T20:15:27.894Z,3.15
2022-09-05T20:18:19.092Z,3.55
2022-09-05T20:20:52.266Z,3.22
2022-09-05T20:23:20.423Z,2.88
2022-09-05T20:25:49.122Z,2.60
2022-09-05T20:28:17.821Z,2.75
2022-09-05T20:30:47.116Z,2.80
2022-09-05T20:33:18.408Z,2.67
2022-09-05T20:43:08.396Z,2.42
2022-09-05T20:43:14.584Z,2.30
2022-09-05T20:43:24.765Z,2.20
2022-09-05T20:44:22.444Z,2.10
2022-09-05T20:50:26.033Z,1.95
2022-09-05T20:54:13.189Z,2.17
2022-09-05T20:54:14.768Z,1.98
2022-09-05T20:55:38.451Z,2.20
2022-09-05T20:58:09.596Z,2.03
2022-09-05T21:00:38.453Z,1.92
2022-09-05T21:03:08.889Z,2.10
2022-09-05T21:05:38.576Z,1.70
2022-09-05T21:08:16.892Z,1.90
2022-09-05T21:10:55.366Z,2.17
2022-09-05T21:13:26.074Z,1.58
2022-09-05T21:15:54.716Z,1.70
2022-09-05T21:18:30.003Z,1.80
2022-09-05T21:21:11.641Z,1.98
2022-09-05T21:23:59.858Z,1.60
2022-09-05T21:26:46.618Z,2.05
2022-09-05T21:29:16.515Z,2.47
2022-09-05T21:31:44.944Z,1.75
2022-09-05T21:34:15.179Z,1.80
2022-09-05T21:36:42.908Z,1.70
2022-09-05T21:39:13.154Z,1.70
2022-09-05T21:41:41.143Z,2.10
2022-09-05T21:47:34.068Z,1.80
2022-09-05T21:47:40.212Z,1.92
2022-09-05T21:49:49.251Z,1.80
2022-09-05T21:52:17.060Z,2.08
2022-09-05T21:59:11.619Z,1.65
2022-09-05T21:59:27.969Z,1.83
2022-09-05T22:00:23.123Z,1.77
2022-09-05T22:02:50.993Z,1.75
2022-09-05T22:05:20.131Z,1.83
2022-09-05T22:07:48.691Z,2.00
2022-09-05T22:10:16.330Z,1.77
2022-09-05T22:12:44.005Z,1.77
2022-09-05T22:15:27.645Z,1.60
2022-09-05T22:18:27.046Z,1.60
2022-09-05T22:20:51.293Z,1.70
2022-09-05T22:23:36.891Z,1.80
2022-09-05T22:26:06.200Z,1.60
2022-09-05T22:28:36.030Z,1.65
2022-09-05T22:31:07.252Z,1.88
2022-09-05T22:33:37.104Z,1.65
2022-09-05T22:36:05.152Z,1.92
2022-09-05T22:38:33.378Z,1.90
2022-09-05T22:41:01.076Z,1.90
2022-09-05T22:43:33.719Z,1.90
2022-09-05T22:46:01.527Z,1.80
2022-09-05T22:48:29.420Z,1.60
2022-09-05T22:50:58.567Z,1.83
2022-09-05T22:53:26.579Z,1.70
2022-09-05T22:55:56.992Z,2.10
2022-09-05T22:58:25.119Z,1.90
2022-09-05T23:00:52.828Z,1.73
2022-09-05T23:03:20.639Z,1.90
2022-09-05T23:05:48.442Z,1.70
2022-09-05T23:08:17.468Z,1.50
2022-09-05T23:10:45.486Z,1.60
2022-09-05T23:13:13.192Z,1.65
2022-09-05T23:15:40.976Z,1.73
2022-09-05T23:18:08.788Z,1.85
2022-09-05T23:20:36.413Z,1.65
2022-09-05T23:23:05.415Z,1.80
2022-09-05T23:25:35.024Z,1.48
2022-09-05T23:28:05.361Z,1.55
2022-09-05T23:30:33.268Z,1.58
2022-09-05T23:33:00.900Z,1.70
2022-09-05T23:35:28.736Z,1.63
2022-09-05T23:37:56.468Z,1.33
2022-09-05T23:40:24.770Z,1.65
2022-09-05T23:42:55.465Z,1.60
2022-09-05T23:45:23.935Z,1.83
2022-09-05T23:47:52.039Z,1.60
2022-09-05T23:50:20.576Z,1.67
2022-09-05T23:52:48.239Z,1.60
2022-09-05T23:55:16.822Z,1.55
2022-09-05T23:57:44.936Z,1.70
